Time;durP1;ratioP1;P1;durP2;ratioP2;P2;SDS_P1;SDS_P2;PMS_P1;PMS_P2;Temp;Humidity;BMP_temperature;BMP_pressure;BME280_temperature;BME280_humidity;BME280_pressure;Samples;Min_cycle;Max_cycle;Signal;HPM_P1;HPM_P2
2022/10/06 00:00:43;;;;;;;7.65;1.60;;;11.30;99.90;;;;;;4918767;29;20040;-77
2022/10/06 00:03:09;;;;;;;7.03;1.10;;;11.50;99.90;;;;;;4916680;29;20051;-76
2022/10/06 00:05:34;;;;;;;11.00;1.20;;;11.50;99.90;;;;;;4916886;29;20028;-76
2022/10/06 00:08:01;;;;;;;7.45;1.20;;;11.60;99.90;;;;;;4916967;29;20405;-77
2022/10/06 00:10:27;;;;;;;11.40;1.38;;;11.30;99.90;;;;;;4916790;29;20052;-76
2022/10/06 00:12:53;;;;;;;12.23;1.48;;;11.50;99.90;;;;;;4916872;29;20044;-76
2022/10/06 00:15:21;;;;;;;9.75;1.85;;;11.40;99.90;;;;;;4933767;29;20034;-76
2022/10/06 00:17:47;;;;;;;8.85;1.33;;;11.30;99.90;;;;;;4927379;29;20032;-77
2022/10/06 00:20:13;;;;;;;9.02;1.52;;;11.40;99.90;;;;;;4916583;29;20099;-76
2022/10/06 00:22:43;;;;;;;8.82;1.33;;;11.50;99.90;;;;;;4924908;29;20341;-76
2022/10/06 00:25:11;;;;;;;10.00;1.50;;;11.30;99.90;;;;;;4935895;29;20063;-76
2022/10/06 00:27:42;;;;;;;5.97;1.17;;;11.30;99.90;;;;;;4937584;29;20103;-77
2022/10/06 00:30:11;;;;;;;9.68;1.55;;;11.30;99.90;;;;;;4919870;29;20028;-77
2022/10/06 00:32:37;;;;;;;12.80;1.50;;;11.30;99.90;;;;;;4919971;29;20043;-77
2022/10/06 00:35:04;;;;;;;7.57;1.33;;;11.20;99.90;;;;;;4919777;29;20420;-77
2022/10/06 00:37:34;;;;;;;5.95;1.42;;;11.30;99.90;;;;;;4909222;29;20035;-77
2022/10/06 00:40:00;;;;;;;9.93;1.10;;;11.30;99.90;;;;;;4906139;29;20035;-77
2022/10/06 00:42:31;;;;;;;8.27;1.13;;;11.10;99.90;;;;;;4932370;29;20020;-77
2022/10/06 00:45:03;;;;;;;12.00;1.75;;;11.10;99.90;;;;;;4923644;29;20043;-77
2022/10/06 00:47:31;;;;;;;13.82;1.60;;;11.20;99.90;;;;;;4932221;29;20532;-77
2022/10/06 00:49:59;;;;;;;9.13;1.17;;;11.10;99.90;;;;;;4932187;29;20056;-77
2022/10/06 00:52:29;;;;;;;8.50;1.40;;;11.00;99.90;;;;;;4910579;29;20088;-77
2022/10/06 00:54:57;;;;;;;;;;;11.00;99.90;;;;;;4916169;29;20373;-77
2022/10/06 00:57:24;;;;;;;8.65;1.40;;;11.00;99.90;;;;;;4919500;29;19907;-77
2022/10/06 00:59:50;;;;;;;13.32;2.15;;;10.90;99.90;;;;;;4919354;29;20095;-77
2022/10/06 01:02:25;;;;;;;9.30;1.80;;;10.70;99.90;;;;;;4911993;29;20172;-77
2022/10/06 01:04:57;;;;;;;9.48;1.45;;;10.60;99.90;;;;;;4929128;29;20083;-77
2022/10/06 01:07:26;;;;;;;11.50;1.40;;;10.50;99.90;;;;;;4929022;29;20024;-77
2022/10/06 01:09:53;;;;;;;11.87;2.03;;;10.70;99.90;;;;;;4919174;29;20028;-77
2022/10/06 01:12:20;;;;;;;9.00;1.20;;;10.60;99.90;;;;;;4919287;29;20384;-77
2022/10/06 01:14:46;;;;;;;10.70;1.17;;;10.70;99.90;;;;;;4928187;29;20024;-77
2022/10/06 01:17:20;;;;;;;5.38;1.02;;;10.50;99.90;;;;;;4926055;29;20032;-77
2022/10/06 01:19:59;;;;;;;6.75;1.05;;;10.50;99.90;;;;;;4937862;29;20059;-77
2022/10/06 01:22:37;;;;;;;15.85;1.45;;;10.50;99.90;;;;;;4908168;29;20032;-76
2022/10/06 01:25:04;;;;;;;8.10;1.45;;;10.80;99.90;;;;;;4914611;29;20092;-77
2022/10/06 01:27:32;;;;;;;7.45;1.48;;;10.80;99.90;;;;;;4907563;29;20040;-77
2022/10/06 01:29:59;;;;;;;6.32;0.95;;;10.90;99.90;;;;;;4918913;29;20028;-77
2022/10/06 01:32:30;;;;;;;10.20;1.20;;;10.80;99.90;;;;;;4910793;29;20032;-77
2022/10/06 01:34:56;;;;;;;7.20;1.27;;;10.70;99.90;;;;;;4915277;29;20096;-77
2022/10/06 01:37:21;;;;;;;8.45;1.58;;;10.60;99.90;;;;;;4918719;29;20472;-77
2022/10/06 01:39:47;;;;;;;12.57;1.92;;;10.70;99.90;;;;;;4918049;29;20103;-77
2022/10/06 01:42:13;;;;;;;5.72;1.27;;;10.60;99.90;;;;;;4918567;29;20031;-77
2022/10/06 01:44:38;;;;;;;8.23;1.17;;;10.60;99.90;;;;;;4918572;29;20388;-77
2022/10/06 01:47:05;;;;;;;8.23;1.35;;;10.60;99.90;;;;;;4918461;29;20075;-77
2022/10/06 01:49:30;;;;;;;7.78;1.17;;;10.70;99.90;;;;;;4932025;29;20023;-77
2022/10/06 01:51:56;;;;;;;7.55;1.30;;;10.70;99.90;;;;;;4937578;29;20082;-77
2022/10/06 01:54:22;;;;;;;5.13;0.80;;;10.60;99.90;;;;;;4923309;29;20020;-77
2022/10/06 01:56:52;;;;;;;;;;;10.70;99.90;;;;;;4919029;29;20072;-77
2022/10/06 01:59:17;;;;;;;9.23;1.10;;;10.80;99.90;;;;;;4918298;29;19950;-77
2022/10/06 02:01:57;;;;;;;4.78;1.40;;;10.90;99.90;;;;;;4917607;29;20229;-77
2022/10/06 02:04:23;;;;;;;6.80;1.00;;;11.30;99.90;;;;;;4899486;29;20043;-77
2022/10/06 02:06:50;;;;;;;7.05;1.23;;;11.30;99.90;;;;;;4899317;29;20028;-77
2022/10/06 02:09:15;;;;;;;8.35;1.10;;;11.20;99.90;;;;;;4899524;29;20107;-77
2022/10/06 02:11:41;;;;;;;7.35;1.10;;;11.30;99.90;;;;;;4927724;29;20412;-77
2022/10/06 02:14:07;;;;;;;7.72;1.33;;;11.30;99.90;;;;;;4937242;29;20099;-77
2022/10/06 02:16:32;;;;;;;6.95;1.13;;;11.10;99.90;;;;;;4935062;29;20495;-77
2022/10/06 02:18:58;;;;;;;11.70;1.42;;;11.00;99.90;;;;;;4910061;29;20460;-77
2022/10/06 02:21:23;;;;;;;8.95;1.50;;;11.20;99.90;;;;;;4927703;29;20106;-77
2022/10/06 02:23:49;;;;;;;5.97;1.23;;;11.30;99.90;;;;;;4937060;29;20028;-77
2022/10/06 02:26:16;;;;;;;11.63;2.22;;;11.30;99.90;;;;;;4936891;29;20094;-77
2022/10/06 02:28:43;;;;;;;5.60;1.38;;;11.50;99.90;;;;;;4929374;29;20056;-77
2022/10/06 02:31:09;;;;;;;8.05;1.30;;;11.20;99.90;;;;;;4917860;29;20095;-77
2022/10/06 02:33:36;;;;;;;15.52;1.67;;;11.20;99.90;;;;;;4911038;29;20024;-77
2022/10/06 02:36:03;;;;;;;7.63;1.40;;;11.10;99.90;;;;;;4912264;29;20016;-77
2022/10/06 02:38:30;;;;;;;6.25;1.30;;;11.00;99.90;;;;;;4917899;29;20032;-77
2022/10/06 02:40:57;;;;;;;8.65;1.25;;;10.90;99.90;;;;;;4930608;29;20031;-77
2022/10/06 02:43:23;;;;;;;8.55;1.33;;;10.80;99.90;;;;;;4917705;29;20480;-77
2022/10/06 02:45:54;;;;;;;8.32;1.45;;;10.80;99.90;;;;;;4919244;29;20024;-77
2022/10/06 02:48:21;;;;;;;7.15;1.10;;;10.70;99.90;;;;;;4936707;29;20020;-77
2022/10/06 02:51:11;;;;;;;9.38;1.10;;;10.60;99.90;;;;;;4927342;29;20031;-77
2022/10/06 02:53:38;;;;;;;9.10;1.38;;;10.70;99.90;;;;;;4898660;29;20092;-77
2022/10/06 02:56:14;;;;;;;7.88;1.30;;;10.70;99.90;;;;;;4916622;29;20111;-77
2022/10/06 02:58:43;;;;;;;10.57;1.35;;;10.80;99.90;;;;;;4937000;29;20051;-77
2022/10/06 03:01:12;;;;;;;7.97;1.25;;;10.70;99.90;;;;;;4926012;29;20036;-77
2022/10/06 03:03:38;;;;;;;12.05;1.67;;;10.70;99.90;;;;;;4912809;29;20441;-77
2022/10/06 03:06:20;;;;;;;10.32;1.15;;;10.70;99.90;;;;;;4909100;29;20036;-77
2022/10/06 03:08:57;;;;;;;8.13;1.05;;;10.70;99.90;;;;;;4898897;29;20533;-77
2022/10/06 03:11:42;;;;;;;6.13;1.20;;;10.60;99.90;;;;;;4905251;29;20114;-77
2022/10/06 03:14:08;;;;;;;4.85;1.40;;;10.60;99.90;;;;;;4923917;29;20031;-77
2022/10/06 03:16:38;;;;;;;7.15;1.08;;;10.50;99.90;;;;;;4917796;29;20037;-77
2022/10/06 03:19:06;;;;;;;6.70;1.10;;;10.50;99.90;;;;;;4923389;29;20119;-77
2022/10/06 03:21:34;;;;;;;11.23;1.67;;;10.50;99.90;;;;;;4909678;29;20547;-77
2022/10/06 03:24:00;;;;;;;7.55;1.50;;;10.60;99.90;;;;;;4898501;29;20029;-77
2022/10/06 03:26:32;;;;;;;6.40;1.10;;;10.60;99.90;;;;;;4898350;29;20033;-77
2022/10/06 03:28:59;;;;;;;8.68;1.13;;;10.50;99.90;;;;;;4906249;29;20028;-77
2022/10/06 03:31:25;;;;;;;5.32;1.02;;;10.40;99.90;;;;;;4917328;29;20040;-77
2022/10/06 03:33:51;;;;;;;5.15;1.08;;;10.50;99.90;;;;;;4926015;29;20039;-77
2022/10/06 03:36:22;;;;;;;6.70;1.10;;;10.30;99.90;;;;;;4933481;29;20372;-77
2022/10/06 03:38:48;;;;;;;8.95;1.33;;;10.30;99.90;;;;;;4917012;29;20028;-77
2022/10/06 03:41:19;;;;;;;12.75;1.20;;;10.40;99.90;;;;;;4917171;29;20091;-77
2022/10/06 03:43:47;;;;;;;9.60;1.20;;;10.20;99.90;;;;;;4917029;29;20036;-77
2022/10/06 03:46:15;;;;;;;9.20;1.30;;;10.10;99.90;;;;;;4929607;29;20036;-77
2022/10/06 03:48:41;;;;;;;7.35;1.05;;;10.10;99.90;;;;;;4917026;29;20028;-77
2022/10/06 03:51:16;;;;;;;7.72;1.17;;;10.10;99.90;;;;;;4916927;29;20040;-77
2022/10/06 03:53:43;;;;;;;5.30;1.17;;;10.40;99.90;;;;;;4917159;29;20076;-77
2022/10/06 03:56:14;;;;;;;11.18;1.35;;;10.60;99.90;;;;;;4935895;29;20118;-77
2022/10/06 03:58:42;;;;;;;9.57;1.80;;;10.60;99.90;;;;;;4922622;29;20380;-77
2022/10/06 04:01:08;;;;;;;11.23;1.80;;;10.60;99.90;;;;;;4916638;29;20038;-77
2022/10/06 04:03:35;;;;;;;11.52;1.42;;;10.90;99.90;;;;;;4919892;29;20052;-77
2022/10/06 04:06:04;;;;;;;9.50;1.83;;;10.90;99.90;;;;;;4907895;29;20028;-77
2022/10/06 04:08:31;;;;;;;13.02;2.13;;;10.70;99.90;;;;;;4920301;29;20028;-77
2022/10/06 04:11:09;;;;;;;11.93;1.63;;;10.70;99.90;;;;;;4908172;29;20452;-77
2022/10/06 04:13:35;;;;;;;8.45;1.88;;;10.40;99.90;;;;;;4920324;29;20024;-77
2022/10/06 04:16:18;;;;;;;12.90;1.67;;;10.40;99.90;;;;;;4920728;29;20024;-77
2022/10/06 04:18:47;;;;;;;10.57;1.70;;;10.40;99.90;;;;;;4920293;29;20512;-77
2022/10/06 04:21:13;;;;;;;7.35;1.27;;;10.30;99.90;;;;;;4920402;29;20111;-77
2022/10/06 04:23:38;;;;;;;5.75;1.30;;;10.20;99.90;;;;;;4920132;29;20115;-77
2022/10/06 04:26:08;;;;;;;13.02;1.40;;;10.40;99.90;;;;;;4910461;29;20084;-77
2022/10/06 04:28:36;;;;;;;10.70;1.35;;;10.30;99.90;;;;;;4900751;29;20096;-77
2022/10/06 04:31:02;;;;;;;10.52;2.30;;;10.10;99.90;;;;;;4901439;29;20056;-77
2022/10/06 04:33:27;;;;;;;10.43;1.75;;;10.10;99.90;;;;;;4925081;29;20058;-77
2022/10/06 04:35:58;;;;;;;12.60;1.40;;;10.10;99.90;;;;;;4939252;29;20023;-77
2022/10/06 04:38:23;;;;;;;6.93;1.63;;;10.10;99.90;;;;;;4914015;29;20062;-77
2022/10/06 04:40:49;;;;;;;12.32;1.67;;;10.30;99.90;;;;;;4938832;29;20089;-77
2022/10/06 04:43:15;;;;;;;11.75;1.65;;;10.30;99.90;;;;;;4938743;29;20032;-77
2022/10/06 04:45:40;;;;;;;9.32;1.30;;;10.20;99.90;;;;;;4925120;29;20048;-77
2022/10/06 04:48:06;;;;;;;5.75;1.30;;;10.30;99.90;;;;;;4919725;29;20035;-77
2022/10/06 04:50:31;;;;;;;15.60;1.60;;;10.40;99.90;;;;;;4919763;29;20043;-77
2022/10/06 04:52:57;;;;;;;12.32;2.40;;;10.60;99.90;;;;;;4919071;29;20036;-77
2022/10/06 04:55:22;;;;;;;8.73;1.40;;;10.60;99.90;;;;;;4924673;29;20115;-77
2022/10/06 04:57:48;;;;;;;9.02;1.48;;;10.60;99.90;;;;;;4920445;29;20035;-77
2022/10/06 05:00:24;;;;;;;10.93;1.90;;;10.80;99.90;;;;;;4912154;29;20042;-77
2022/10/06 05:02:56;;;;;;;12.93;1.40;;;10.90;99.90;;;;;;4919580;29;20115;-77
2022/10/06 05:05:22;;;;;;;7.30;1.25;;;11.00;99.90;;;;;;4925489;29;20024;-77
2022/10/06 05:07:47;;;;;;;11.30;1.75;;;11.10;99.90;;;;;;4925892;29;20027;-77
2022/10/06 05:10:13;;;;;;;7.88;1.52;;;11.20;99.90;;;;;;4917202;29;20051;-77
2022/10/06 05:12:38;;;;;;;10.48;1.67;;;11.10;99.90;;;;;;4917904;29;20036;-77
2022/10/06 05:15:04;;;;;;;10.90;1.77;;;10.90;99.90;;;;;;4917145;29;20032;-77
2022/10/06 05:17:30;;;;;;;9.70;1.52;;;10.90;99.90;;;;;;4918184;29;20387;-76
2022/10/06 05:19:56;;;;;;;6.65;0.98;;;10.80;99.90;;;;;;4917841;29;20060;-77
2022/10/06 05:22:21;;;;;;;11.80;2.25;;;10.70;99.90;;;;;;4917829;29;20032;-77
2022/10/06 05:24:49;;;;;;;9.25;1.48;;;10.80;99.90;;;;;;4916436;29;20543;-77
2022/10/06 05:27:15;;;;;;;11.00;1.35;;;11.10;99.90;;;;;;4916614;29;20111;-77
2022/10/06 05:29:40;;;;;;;6.68;1.30;;;11.20;99.90;;;;;;4919513;29;20247;-77
2022/10/06 05:32:06;;;;;;;9.23;1.65;;;11.10;99.90;;;;;;4908488;29;20036;-77
2022/10/06 05:34:32;;;;;;;8.45;1.40;;;10.80;99.90;;;;;;4915996;29;20723;-77
2022/10/06 05:36:57;;;;;;;11.00;1.70;;;10.70;99.90;;;;;;4914956;29;20175;-77
2022/10/06 05:39:23;;;;;;;7.13;1.27;;;10.70;99.90;;;;;;4915407;29;20024;-77
2022/10/06 05:41:48;;;;;;;11.13;1.85;;;10.90;99.90;;;;;;4915544;29;20036;-77
2022/10/06 05:44:14;;;;;;;8.63;1.20;;;11.00;99.90;;;;;;4919040;29;20694;-77
2022/10/06 05:46:39;;;;;;;9.60;1.50;;;11.00;99.90;;;;;;4913682;29;20028;-77
2022/10/06 05:49:08;;;;;;;10.77;2.20;;;10.90;99.90;;;;;;4915207;29;20028;-77
2022/10/06 05:51:34;;;;;;;8.55;1.30;;;10.70;99.90;;;;;;4918133;29;20028;-77
2022/10/06 05:54:00;;;;;;;10.38;1.60;;;10.60;99.90;;;;;;4915190;29;20034;-77
2022/10/06 05:56:31;;;;;;;8.23;1.05;;;10.50;99.90;;;;;;4918149;29;20032;-77
2022/10/06 05:58:57;;;;;;;;;;;10.90;99.90;;;;;;4915932;29;20038;-77
2022/10/06 06:01:33;;;;;;;12.60;1.63;;;10.90;99.90;;;;;;4913748;29;19919;-77
2022/10/06 06:04:05;;;;;;;15.40;1.98;;;10.90;99.90;;;;;;4909747;29;20049;-77
2022/10/06 06:06:36;;;;;;;5.90;1.20;;;10.70;99.90;;;;;;4913701;29;20020;-77
2022/10/06 06:09:05;;;;;;;6.00;1.25;;;10.60;99.90;;;;;;4917744;29;20027;-77
2022/10/06 06:11:32;;;;;;;13.18;1.77;;;10.50;99.90;;;;;;4914573;29;20031;-77
2022/10/06 06:14:00;;;;;;;9.05;1.42;;;10.50;99.90;;;;;;4920343;29;20115;-77
2022/10/06 06:16:27;;;;;;;10.07;1.50;;;10.50;99.90;;;;;;4910041;29;20047;-77
2022/10/06 06:18:53;;;;;;;9.15;1.70;;;10.50;99.90;;;;;;4916434;29;20036;-77
2022/10/06 06:21:20;;;;;;;8.80;1.30;;;10.50;99.90;;;;;;4916638;29;20037;-76
2022/10/06 06:23:47;;;;;;;10.38;1.45;;;10.70;99.90;;;;;;4916455;29;20043;-77
2022/10/06 06:26:17;;;;;;;18.50;2.03;;;11.30;99.90;;;;;;4909235;29;20024;-77
2022/10/06 06:28:47;;;;;;;12.10;1.42;;;11.70;99.90;;;;;;4917841;29;20040;-77
2022/10/06 06:31:16;;;;;;;9.10;1.50;;;11.80;99.90;;;;;;4919619;29;20040;-77
2022/10/06 06:33:42;;;;;;;8.95;1.67;;;11.50;99.90;;;;;;4913390;29;20027;-77
2022/10/06 06:36:40;;;;;;;8.48;1.20;;;11.30;99.90;;;;;;4919580;29;20492;-77
2022/10/06 06:39:14;;;;;;;12.25;1.67;;;11.20;99.90;;;;;;4893556;29;20515;-77
2022/10/06 06:41:44;;;;;;;7.20;1.50;;;11.20;99.90;;;;;;4909857;29;20055;-77
2022/10/06 06:44:12;;;;;;;14.73;1.35;;;11.70;99.90;;;;;;4915294;29;20055;-77
2022/10/06 06:46:41;;;;;;;6.28;1.40;;;12.30;99.90;;;;;;4909668;29;20505;-77
2022/10/06 06:49:08;;;;;;;11.40;1.42;;;12.40;99.90;;;;;;4914757;29;20481;-77
2022/10/06 06:51:36;;;;;;;10.38;1.70;;;12.20;99.90;;;;;;4919901;29;20083;-76
2022/10/06 06:54:02;;;;;;;10.05;1.30;;;12.20;99.90;;;;;;4920162;29;20032;-77
2022/10/06 06:56:32;;;;;;;10.73;2.10;;;12.40;99.90;;;;;;4922067;29;20036;-77
2022/10/06 06:58:57;;;;;;;12.07;1.42;;;14.70;97.60;;;;;;4906260;29;20024;-76
2022/10/06 07:01:23;;;;;;;10.25;1.52;;;17.80;53.70;;;;;;4911467;29;20032;-77
2022/10/06 07:03:53;;;;;;;9.88;1.80;;;19.70;23.50;;;;;;4915033;29;20048;-77
2022/10/06 07:06:20;;;;;;;11.68;1.50;;;21.00;7.50;;;;;;4914509;29;20028;-77
2022/10/06 07:08:47;;;;;;;12.30;1.40;;;22.30;1.30;;;;;;4914056;29;20571;-77
2022/10/06 07:11:19;;;;;;;7.38;1.15;;;23.40;1.00;;;;;;4916215;29;20032;-77
2022/10/06 07:13:46;;;;;;;8.68;1.25;;;24.70;1.00;;;;;;4914529;29;20024;-77
2022/10/06 07:27:16;;;;;;;7.03;1.35;;;29.00;1.00;;;;;;4909246;29;20627;-77
2022/10/06 07:29:41;;;;;;;8.20;1.70;;;29.60;1.00;;;;;;4916003;29;20484;-77
2022/10/06 07:32:07;;;;;;;7.20;1.15;;;30.10;1.00;;;;;;4912590;29;20028;-78
2022/10/06 07:34:32;;;;;;;3.60;1.05;;;31.20;1.00;;;;;;4913238;29;20058;-78
2022/10/06 07:36:58;;;;;;;10.15;1.60;;;31.80;1.00;;;;;;4912699;29;20043;-77
2022/10/06 07:39:23;;;;;;;6.03;1.05;;;32.20;1.00;;;;;;4920045;29;20161;-77
2022/10/06 07:41:50;;;;;;;9.43;1.42;;;32.40;1.00;;;;;;4918842;29;20032;-77
2022/10/06 07:44:15;;;;;;;6.55;1.27;;;32.60;1.00;;;;;;4917282;29;20107;-77
2022/10/06 07:46:42;;;;;;;6.57;1.45;;;32.60;1.00;;;;;;4917262;29;20543;-78
2022/10/06 07:49:08;;;;;;;9.38;1.48;;;33.60;1.00;;;;;;4918495;29;20024;-77
2022/10/06 07:51:34;;;;;;;6.10;1.40;;;34.90;1.00;;;;;;4917941;29;20036;-77
2022/10/06 07:54:00;;;;;;;7.07;1.45;;;36.20;1.00;;;;;;4918672;29;20032;-77
2022/10/06 07:56:26;;;;;;;5.15;1.50;;;35.90;1.00;;;;;;4916570;29;20043;-77
2022/10/06 07:58:52;;;;;;;6.07;1.40;;;35.80;1.00;;;;;;4921827;29;20024;-78
2022/10/06 08:01:19;;;;;;;5.45;1.38;;;36.10;1.00;;;;;;4921412;29;20544;-77
2022/10/06 08:03:49;;;;;;;6.20;1.20;;;36.40;1.00;;;;;;4916837;29;20060;-78
2022/10/06 08:06:16;;;;;;;8.60;1.60;;;36.00;1.00;;;;;;4894346;29;20314;-78
2022/10/06 08:08:46;;;;;;;4.82;1.20;;;37.30;1.00;;;;;;4919060;29;20403;-78
2022/10/06 08:11:14;;;;;;;6.50;1.40;;;36.50;1.00;;;;;;4900248;29;20032;-78
2022/10/06 08:13:42;;;;;;;9.07;1.35;;;37.50;1.00;;;;;;4913150;29;20024;-78
2022/10/06 08:16:09;;;;;;;9.13;1.60;;;36.00;1.00;;;;;;4916608;29;20441;-78
2022/10/06 08:18:35;;;;;;;6.68;1.25;;;37.20;1.00;;;;;;4921218;29;20051;-78
2022/10/06 08:21:09;;;;;;;7.03;1.30;;;36.50;1.00;;;;;;4919805;29;20445;-78
2022/10/06 08:23:38;;;;;;;4.80;1.10;;;34.90;1.00;;;;;;4925302;29;20036;-78
2022/10/06 08:26:03;;;;;;;7.13;1.47;;;35.10;1.00;;;;;;4921670;29;20238;-78
2022/10/06 08:28:29;;;;;;;7.10;1.20;;;37.20;1.00;;;;;;4922955;29;20038;-78
2022/10/06 08:30:55;;;;;;;5.22;1.23;;;37.20;1.00;;;;;;4921425;29;20571;-78
2022/10/06 08:33:21;;;;;;;5.40;1.10;;;36.90;1.00;;;;;;4921602;29;20480;-78
2022/10/06 08:35:47;;;;;;;7.35;1.52;;;37.40;1.00;;;;;;4917593;29;20032;-78
2022/10/06 08:38:13;;;;;;;5.45;1.20;;;35.10;1.00;;;;;;4916742;29;20024;-78
2022/10/06 08:40:42;;;;;;;9.13;1.55;;;36.00;1.00;;;;;;4916838;29;20036;-78
2022/10/06 08:43:14;;;;;;;7.03;1.23;;;36.80;1.00;;;;;;4916698;29;20026;-78
2022/10/06 08:45:43;;;;;;;4.20;1.08;;;37.60;1.00;;;;;;4916552;29;20047;-78
2022/10/06 08:48:13;;;;;;;6.50;1.30;;;38.50;1.00;;;;;;4912693;29;20503;-78
2022/10/06 08:50:53;;;;;;;5.72;1.10;;;38.30;1.00;;;;;;4921980;29;20028;-78
2022/10/06 08:53:37;;;;;;;6.50;1.30;;;38.00;1.00;;;;;;4920507;29;20035;-78
2022/10/06 08:56:06;;;;;;;6.03;1.48;;;37.00;1.00;;;;;;4920074;29;20549;-78
2022/10/06 08:58:52;;;;;;;;;;;37.20;1.00;;;;;;4916688;29;20111;-78
2022/10/06 09:01:23;;;;;;;8.20;1.40;;;36.90;1.00;;;;;;4908690;29;19925;-78
2022/10/06 09:03:51;;;;;;;6.95;1.02;;;36.20;1.00;;;;;;4925888;29;20054;-78
2022/10/06 09:06:28;;;;;;;7.88;1.08;;;37.20;1.00;;;;;;4922487;29;20067;-78
2022/10/06 09:09:01;;;;;;;4.93;1.23;;;35.50;1.00;;;;;;4920549;29;20027;-78
2022/10/06 09:11:45;;;;;;;4.32;1.05;;;34.70;1.00;;;;;;4916682;29;20198;-78
2022/10/06 09:14:40;;;;;;;6.00;1.20;;;34.10;1.00;;;;;;4920381;29;20036;-78
2022/10/06 09:17:13;;;;;;;9.77;1.52;;;34.00;1.00;;;;;;4921855;29;20565;-78
2022/10/06 09:19:52;;;;;;;7.47;2.08;;;34.40;1.00;;;;;;4909682;29;20023;-78
2022/10/06 09:22:21;;;;;;;8.85;1.17;;;31.70;1.00;;;;;;4913932;29;20040;-78
2022/10/06 09:24:50;;;;;;;8.43;1.23;;;34.20;1.00;;;;;;4909193;29;20039;-78
2022/10/06 09:27:22;;;;;;;4.60;0.90;;;34.80;1.00;;;;;;4919215;29;20769;-78
2022/10/06 09:29:49;;;;;;;6.07;1.30;;;34.80;1.00;;;;;;4912836;29;20266;-78
2022/10/06 09:32:17;;;;;;;5.68;1.63;;;35.50;1.00;;;;;;4915938;29;20059;-78
2022/10/06 09:34:50;;;;;;;6.38;1.30;;;35.10;1.00;;;;;;4917198;29;20030;-78
2022/10/06 09:37:15;;;;;;;9.95;1.33;;;35.50;1.00;;;;;;4916302;29;20028;-78
2022/10/06 09:39:44;;;;;;;7.32;1.48;;;36.00;1.00;;;;;;4915626;29;20038;-78
2022/10/06 09:42:18;;;;;;;5.05;1.10;;;35.90;1.00;;;;;;4915785;29;20036;-78
2022/10/06 09:44:45;;;;;;;8.57;1.33;;;35.30;1.00;;;;;;4915973;29;20393;-78
2022/10/06 09:47:35;;;;;;;4.90;1.10;;;36.10;1.00;;;;;;4921927;29;20384;-78
2022/10/06 09:50:13;;;;;;;8.35;1.45;;;34.20;1.00;;;;;;4919939;29;20439;-78
2022/10/06 09:53:03;;;;;;;5.25;1.08;;;34.30;1.00;;;;;;4923157;29;20107;-78
2022/10/06 09:55:39;;;;;;;5.85;1.10;;;34.10;1.00;;;;;;4914463;29;20044;-78
2022/10/06 09:58:19;;;;;;;6.93;1.23;;;34.10;1.00;;;;;;4911906;29;20099;-78
2022/10/06 10:00:52;;;;;;;4.75;1.17;;;34.40;1.00;;;;;;4923908;29;20044;-78
2022/10/06 10:03:19;;;;;;;6.93;1.20;;;34.60;1.00;;;;;;4915022;29;20104;-78
2022/10/06 10:05:50;;;;;;;8.90;1.30;;;33.20;1.00;;;;;;4919329;29;20032;-78
2022/10/06 10:08:26;;;;;;;7.88;1.00;;;31.50;1.00;;;;;;4915355;29;20032;-78
2022/10/06 10:12:23;;;;;;;6.25;1.20;;;29.00;1.00;;;;;;4920406;29;20043;-78
2022/10/06 10:13:54;;;;;;;6.80;1.08;;;28.20;1.00;;;;;;4914112;29;20407;-78
2022/10/06 10:16:24;;;;;;;9.30;1.20;;;25.30;1.00;;;;;;4914885;29;20035;-78
2022/10/06 10:18:50;;;;;;;5.53;1.00;;;23.90;1.00;;;;;;4916621;29;20052;-78
2022/10/06 10:21:25;;;;;;;5.22;0.88;;;23.30;1.00;;;;;;4915387;29;20135;-78
2022/10/06 10:23:56;;;;;;;6.40;0.95;;;22.60;1.00;;;;;;4918551;29;20066;-78
2022/10/06 10:26:43;;;;;;;7.35;1.02;;;22.30;1.00;;;;;;4914302;29;20040;-78
2022/10/06 10:29:44;;;;;;;6.63;0.80;;;22.00;1.00;;;;;;4914192;29;20103;-78
2022/10/06 10:32:14;;;;;;;3.72;1.00;;;21.70;1.00;;;;;;4913736;29;20506;-78
2022/10/06 10:34:48;;;;;;;;;;;21.40;1.00;;;;;;4916520;29;20119;-78
2022/10/06 10:37:24;;;;;;;5.10;0.95;;;20.90;1.00;;;;;;4922229;29;19912;-78
2022/10/06 10:39:57;;;;;;;5.10;1.00;;;20.40;1.00;;;;;;4919704;29;20459;-78
2022/10/06 10:42:50;;;;;;;5.43;0.85;;;20.70;1.00;;;;;;4914785;29;20513;-78
2022/10/06 10:45:33;;;;;;;8.60;1.08;;;20.50;1.00;;;;;;4882070;29;20123;-79
2022/10/06 10:48:03;;;;;;;6.57;0.82;;;20.50;1.00;;;;;;4916602;29;20020;-78
2022/10/06 10:50:37;;;;;;;7.35;0.98;;;20.60;1.00;;;;;;4908188;29;20027;-78
2022/10/06 10:53:31;;;;;;;6.00;1.10;;;20.20;1.00;;;;;;4918316;29;20384;-78
2022/10/06 10:55:58;;;;;;;7.20;0.90;;;20.10;1.00;;;;;;4912774;29;20473;-78
2022/10/06 10:58:35;;;;;;;6.05;0.93;;;20.40;1.00;;;;;;4916192;29;20028;-78
2022/10/06 11:01:26;;;;;;;6.22;0.93;;;20.40;1.00;;;;;;4918300;29;20242;-79
2022/10/06 11:03:55;;;;;;;8.40;1.10;;;20.50;1.00;;;;;;4913003;29;20060;-78
2022/10/06 11:06:39;;;;;;;7.80;1.00;;;20.20;1.00;;;;;;4913942;29;20031;-78
2022/10/06 11:09:15;;;;;;;4.80;0.90;;;19.80;1.00;;;;;;4922781;29;20078;-78
2022/10/06 11:11:53;;;;;;;8.05;0.90;;;19.70;1.00;;;;;;4909146;29;20477;-78
2022/10/06 11:14:49;;;;;;;2.42;0.68;;;19.90;1.00;;;;;;4918648;29;20027;-78
2022/10/06 11:17:38;;;;;;;6.32;1.10;;;19.80;1.00;;;;;;4915847;29;20024;-78
2022/10/06 11:20:21;;;;;;;6.90;0.90;;;19.90;1.00;;;;;;4914816;29;20044;-78
2022/10/06 11:23:05;;;;;;;5.60;0.82;;;19.90;1.00;;;;;;4907707;29;20039;-78
2022/10/06 11:25:37;;;;;;;5.75;0.85;;;19.80;1.00;;;;;;4912672;29;20035;-78
2022/10/06 11:28:12;;;;;;;6.40;1.00;;;19.60;1.00;;;;;;4915453;29;20414;-78
2022/10/06 11:31:04;;;;;;;5.80;1.13;;;19.70;1.00;;;;;;4913927;29;20064;-78
2022/10/06 11:33:30;;;;;;;8.88;1.10;;;19.50;1.00;;;;;;4882257;29;20039;-78
2022/10/06 11:35:56;;;;;;;4.95;0.70;;;19.40;1.00;;;;;;4914387;29;20036;-78
2022/10/06 11:38:52;;;;;;;7.72;0.68;;;19.40;1.00;;;;;;4920065;29;20056;-78
2022/10/06 11:41:34;;;;;;;3.40;0.80;;;19.70;1.00;;;;;;4914897;29;20466;-78
2022/10/06 11:44:08;;;;;;;9.80;1.02;;;19.60;1.00;;;;;;4907671;29;20123;-78
2022/10/06 11:46:42;;;;;;;5.88;1.00;;;19.70;1.00;;;;;;4917441;29;20091;-78
2022/10/06 11:49:29;;;;;;;11.13;1.20;;;19.70;1.00;;;;;;4915681;29;20491;-78
2022/10/06 11:52:10;;;;;;;7.30;0.82;;;19.80;1.00;;;;;;4914037;29;20039;-78
2022/10/06 11:54:38;;;;;;;7.97;0.77;;;19.70;1.00;;;;;;4917038;29;20031;-78
2022/10/06 11:57:22;;;;;;;7.15;1.00;;;19.40;1.00;;;;;;4913786;29;20034;-79
2022/10/06 11:59:54;;;;;;;4.15;0.70;;;19.30;1.00;;;;;;4911613;29;20404;-78
2022/10/06 12:02:29;;;;;;;6.60;0.90;;;19.20;1.00;;;;;;4914394;29;20043;-78
2022/10/06 12:05:17;;;;;;;5.50;0.90;;;19.60;1.00;;;;;;4915077;29;20107;-78
2022/10/06 12:07:55;;;;;;;5.93;0.95;;;19.50;1.00;;;;;;4917652;29;20032;-78
2022/10/06 12:10:27;;;;;;;5.30;0.90;;;19.60;1.00;;;;;;4918120;29;20123;-78
2022/10/06 12:13:13;;;;;;;5.00;0.90;;;19.30;1.00;;;;;;4914328;29;20366;-78
2022/10/06 12:15:49;;;;;;;5.45;1.08;;;19.20;1.00;;;;;;4917350;29;20087;-78
2022/10/06 12:18:54;;;;;;;6.32;0.82;;;19.00;1.00;;;;;;4912169;29;20106;-78
2022/10/06 12:21:32;;;;;;;5.57;0.80;;;19.10;1.00;;;;;;4906606;29;20025;-78
2022/10/06 12:24:19;;;;;;;5.60;1.00;;;18.90;1.00;;;;;;4912993;29;20060;-78
2022/10/06 12:26:50;;;;;;;6.63;0.82;;;19.20;1.00;;;;;;4919203;29;20043;-79
2022/10/06 12:29:22;;;;;;;9.60;1.27;;;19.10;1.00;;;;;;4917413;29;20123;-79
2022/10/06 12:31:57;;;;;;;6.20;0.77;;;18.80;1.00;;;;;;4920868;29;20118;-79
2022/10/06 12:34:45;;;;;;;7.68;1.05;;;19.10;1.00;;;;;;4912992;29;20092;-78
2022/10/06 12:37:34;;;;;;;4.97;1.10;;;19.00;1.00;;;;;;4916948;29;20025;-78
2022/10/06 12:40:37;;;;;;;5.03;0.73;;;19.10;1.00;;;;;;4917792;29;20155;-79
2022/10/06 12:43:11;;;;;;;6.65;1.40;;;19.00;1.00;;;;;;4916910;29;20051;-78
2022/10/06 12:45:43;;;;;;;5.07;0.70;;;18.80;1.00;;;;;;4911281;29;20032;-78
2022/10/06 12:48:21;;;;;;;8.35;1.40;;;19.10;1.00;;;;;;4917486;29;20016;-78
2022/10/06 12:50:53;;;;;;;7.38;1.02;;;19.10;1.00;;;;;;4919069;29;20530;-78
2022/10/06 12:53:26;;;;;;;5.65;0.77;;;19.30;1.00;;;;;;4916638;29;20047;-78
2022/10/06 12:55:56;;;;;;;7.03;0.82;;;19.40;1.00;;;;;;4919811;29;20047;-78
2022/10/06 12:58:31;;;;;;;5.90;0.93;;;19.20;1.00;;;;;;4914898;29;20016;-78
2022/10/06 13:01:06;;;;;;;4.18;0.90;;;19.20;1.00;;;;;;4918791;29;20036;-79
2022/10/06 13:03:33;;;;;;;9.77;1.15;;;19.50;1.00;;;;;;4916112;29;20051;-78
2022/10/06 13:06:02;;;;;;;8.25;0.75;;;19.30;1.00;;;;;;4902677;29;20411;-78
2022/10/06 13:08:33;;;;;;;5.60;0.77;;;19.10;1.00;;;;;;4913159;29;20024;-78
2022/10/06 13:11:21;;;;;;;7.68;1.08;;;19.10;1.00;;;;;;4919011;29;20046;-79
2022/10/06 13:13:49;;;;;;;6.85;1.13;;;19.10;1.00;;;;;;4919447;29;20574;-79
2022/10/06 13:16:20;;;;;;;5.93;0.70;;;19.20;1.00;;;;;;4919821;29;20416;-78
2022/10/06 13:18:47;;;;;;;7.82;0.98;;;19.20;1.00;;;;;;4914761;29;20083;-78
2022/10/06 13:21:15;;;;;;;10.02;1.00;;;19.00;1.00;;;;;;4917907;29;20112;-79